Time;durP1;ratioP1;P1;durP2;ratioP2;P2;SDS_P1;SDS_P2;PMS_P1;PMS_P2;Temp;Humidity;BMP_temperature;BMP_pressure;BME280_temperature;BME280_humidity;BME280_pressure;Samples;Min_cycle;Max_cycle;Signal;HPM_P1;HPM_P2
2022/05/17 00:00:28;;;;;;;7.33;2.13;;;18.20;99.90;;;;;;5031739;28;20173;-72
2022/05/17 00:02:54;;;;;;;4.23;2.50;;;18.20;99.90;;;;;;5032284;28;20575;-72
2022/05/17 00:05:20;;;;;;;7.23;3.23;;;18.10;99.90;;;;;;5031350;28;20188;-72
2022/05/17 00:07:45;;;;;;;6.70;2.43;;;18.10;99.90;;;;;;5030579;28;20189;-72
2022/05/17 00:10:11;;;;;;;5.10;2.60;;;18.10;99.90;;;;;;5031704;28;20224;-72
2022/05/17 00:12:37;;;;;;;4.43;2.97;;;18.00;99.90;;;;;;5032054;28;20169;-72
2022/05/17 00:15:05;;;;;;;3.23;2.87;;;18.00;99.90;;;;;;5031760;28;20696;-72
2022/05/17 00:17:31;;;;;;;5.20;3.00;;;18.00;99.90;;;;;;5031186;28;20174;-72
2022/05/17 00:19:57;;;;;;;6.27;3.13;;;18.00;99.90;;;;;;5031265;28;20679;-71
2022/05/17 00:22:23;;;;;;;8.97;3.57;;;18.00;99.90;;;;;;5031927;28;21174;-71
2022/05/17 00:24:48;;;;;;;6.77;2.80;;;17.90;99.90;;;;;;5031400;28;20582;-73
2022/05/17 00:27:14;;;;;;;4.73;2.33;;;17.90;99.90;;;;;;5031406;28;20616;-72
2022/05/17 00:29:40;;;;;;;5.47;3.00;;;17.80;99.90;;;;;;5030189;28;20592;-72
2022/05/17 00:32:06;;;;;;;3.97;2.83;;;17.80;99.90;;;;;;5031709;28;20602;-72
2022/05/17 00:34:32;;;;;;;4.20;2.03;;;17.80;99.90;;;;;;5031472;28;20507;-72
2022/05/17 00:36:58;;;;;;;4.00;2.50;;;17.80;99.90;;;;;;5030911;28;20658;-72
2022/05/17 00:39:24;;;;;;;9.13;2.93;;;17.80;99.90;;;;;;5030218;28;20573;-72
2022/05/17 00:41:49;;;;;;;7.50;2.63;;;17.80;99.90;;;;;;5031372;28;20165;-72
2022/05/17 00:47:22;;;;;;;5.20;3.47;;;17.70;99.90;;;;;;5030731;28;20268;-72
2022/05/17 00:50:03;;;;;;;6.37;2.50;;;17.70;99.90;;;;;;5029704;28;20917;-72
2022/05/17 00:52:40;;;;;;;5.53;3.57;;;17.70;99.90;;;;;;5031191;28;20587;-72
2022/05/17 00:55:18;;;;;;;4.60;2.60;;;17.70;99.90;;;;;;5031241;28;20599;-72
2022/05/17 00:57:52;;;;;;;6.10;3.50;;;17.70;99.90;;;;;;5030127;28;20592;-72
2022/05/17 01:00:19;;;;;;;4.57;2.30;;;17.60;99.90;;;;;;5031025;28;20599;-72
2022/05/17 01:02:50;;;;;;;2.97;2.20;;;17.60;99.90;;;;;;5029836;28;21219;-72
2022/05/17 01:05:18;;;;;;;4.63;2.80;;;17.60;99.90;;;;;;5029481;28;20595;-72
2022/05/17 01:07:51;;;;;;;6.80;2.90;;;17.60;99.90;;;;;;5031223;28;20719;-72
2022/05/17 01:10:17;;;;;;;5.73;2.67;;;17.50;99.90;;;;;;5031018;28;21227;-72
2022/05/17 01:12:43;;;;;;;4.47;3.03;;;17.50;99.90;;;;;;5031125;28;20571;-72
2022/05/17 01:15:11;;;;;;;5.47;2.70;;;17.50;99.90;;;;;;5030995;28;20585;-72
2022/05/17 01:17:40;;;;;;;4.97;3.40;;;17.50;99.90;;;;;;5030547;28;20564;-72
2022/05/17 01:20:12;;;;;;;4.60;3.50;;;17.50;99.90;;;;;;5030833;28;20600;-72
2022/05/17 01:22:38;;;;;;;9.30;3.70;;;17.50;99.90;;;;;;5031137;28;20651;-72
2022/05/17 01:25:05;;;;;;;4.80;2.87;;;17.40;99.90;;;;;;5031026;28;21473;-72
2022/05/17 01:27:43;;;;;;;4.73;2.70;;;17.40;99.90;;;;;;5030385;28;20978;-72
2022/05/17 01:30:16;;;;;;;4.27;2.20;;;17.40;99.90;;;;;;5030657;28;21239;-72
2022/05/17 01:32:42;;;;;;;4.47;2.60;;;17.30;99.90;;;;;;5031046;28;20705;-72
2022/05/17 01:35:08;;;;;;;4.83;2.97;;;17.30;99.90;;;;;;5030982;28;20628;-72
2022/05/17 01:37:34;;;;;;;6.40;3.50;;;17.30;99.90;;;;;;5029239;28;20178;-72
2022/05/17 01:40:00;;;;;;;5.27;2.40;;;17.30;99.90;;;;;;5030669;28;20707;-72
2022/05/17 01:42:26;;;;;;;8.83;2.73;;;17.30;99.90;;;;;;5030880;28;20619;-72
2022/05/17 01:44:53;;;;;;;4.60;2.33;;;17.30;99.90;;;;;;5030619;28;20572;-72
2022/05/17 01:47:18;;;;;;;3.73;2.43;;;17.30;99.90;;;;;;5030330;28;20932;-72
2022/05/17 01:49:44;;;;;;;4.00;2.53;;;17.20;99.90;;;;;;5030525;28;20166;-72
2022/05/17 01:52:10;;;;;;;4.10;2.37;;;17.20;99.90;;;;;;5030973;28;20174;-72
2022/05/17 01:54:36;;;;;;;4.80;2.80;;;17.20;99.90;;;;;;5030650;28;20166;-72
2022/05/17 01:57:03;;;;;;;4.00;2.77;;;17.20;99.90;;;;;;5030090;28;20684;-72
2022/05/17 01:59:29;;;;;;;4.53;2.70;;;17.20;99.90;;;;;;5030653;28;20634;-72
2022/05/17 02:01:55;;;;;;;4.70;2.53;;;17.20;99.90;;;;;;5030556;28;20596;-72
2022/05/17 02:04:25;;;;;;;4.80;2.20;;;17.20;99.90;;;;;;5034276;28;20162;-72
2022/05/17 02:06:51;;;;;;;9.97;3.60;;;17.20;99.90;;;;;;5033798;28;20998;-72
2022/05/17 02:09:16;;;;;;;5.73;2.93;;;17.10;99.90;;;;;;5034271;28;20560;-72
2022/05/17 02:11:42;;;;;;;5.93;2.73;;;17.10;99.90;;;;;;5032701;28;20205;-72
2022/05/17 02:14:08;;;;;;;5.77;3.07;;;17.10;99.90;;;;;;5033941;28;20189;-73
2022/05/17 02:16:37;;;;;;;6.00;3.00;;;17.10;99.90;;;;;;5033817;28;20190;-72
2022/05/17 02:19:04;;;;;;;6.17;2.87;;;17.10;99.90;;;;;;5034304;28;20641;-72
2022/05/17 02:21:29;;;;;;;5.80;2.87;;;17.10;99.90;;;;;;5032401;28;20580;-73
2022/05/17 02:23:55;;;;;;;7.33;3.43;;;17.10;99.90;;;;;;5033905;28;20901;-72
2022/05/17 02:26:21;;;;;;;6.70;2.93;;;17.00;99.90;;;;;;5033110;28;20674;-72
2022/05/17 02:28:46;;;;;;;4.30;3.10;;;17.00;99.90;;;;;;5033964;28;20197;-72
2022/05/17 02:31:15;;;;;;;5.40;3.33;;;17.00;99.90;;;;;;5033649;28;20170;-72
2022/05/17 02:33:41;;;;;;;11.33;3.40;;;17.00;99.90;;;;;;5032790;28;20519;-72
2022/05/17 02:36:06;;;;;;;6.10;3.33;;;17.00;99.90;;;;;;5033443;28;20588;-72
2022/05/17 02:38:32;;;;;;;7.87;3.20;;;17.00;99.90;;;;;;5033670;28;20677;-72
2022/05/17 02:40:58;;;;;;;5.23;2.90;;;16.90;99.90;;;;;;5033463;28;20174;-72
2022/05/17 02:43:24;;;;;;;3.57;2.80;;;16.90;99.90;;;;;;5033495;28;20587;-72
2022/05/17 02:45:51;;;;;;;6.27;2.93;;;16.90;99.90;;;;;;5033122;28;20189;-72
2022/05/17 02:48:17;;;;;;;7.47;3.03;;;16.90;99.90;;;;;;5033527;28;20234;-72
2022/05/17 02:50:42;;;;;;;4.43;2.70;;;16.90;99.90;;;;;;5033108;28;21016;-72
2022/05/17 02:53:08;;;;;;;5.80;2.70;;;16.90;99.90;;;;;;5033299;28;20177;-72
2022/05/17 02:55:34;;;;;;;5.77;2.97;;;16.90;99.90;;;;;;5032440;28;20180;-72
2022/05/17 02:57:59;;;;;;;7.73;2.57;;;16.90;99.90;;;;;;5033441;28;20791;-72
2022/05/17 03:00:26;;;;;;;4.20;3.30;;;16.90;99.90;;;;;;5031932;28;20174;-72
2022/05/17 03:02:52;;;;;;;5.43;2.27;;;16.90;99.90;;;;;;5033385;28;20197;-72
2022/05/17 03:05:19;;;;;;;3.50;2.63;;;16.90;99.90;;;;;;5032695;28;20634;-72
2022/05/17 03:07:45;;;;;;;5.53;3.50;;;16.90;99.90;;;;;;5031882;28;20702;-72
2022/05/17 03:10:11;;;;;;;5.83;3.00;;;16.90;99.90;;;;;;5032668;28;21143;-72
2022/05/17 03:12:38;;;;;;;5.73;2.50;;;16.90;99.90;;;;;;5033141;28;20947;-72
2022/05/17 03:15:05;;;;;;;4.10;2.67;;;16.90;99.90;;;;;;5032706;28;20893;-72
2022/05/17 03:17:31;;;;;;;5.90;3.20;;;16.90;99.90;;;;;;5031354;28;20579;-72
2022/05/17 03:19:57;;;;;;;4.37;2.90;;;16.90;99.90;;;;;;5032635;28;20564;-72
2022/05/17 03:22:23;;;;;;;4.43;2.77;;;16.90;99.90;;;;;;5032997;28;20565;-72
2022/05/17 03:24:51;;;;;;;4.10;2.53;;;16.90;99.90;;;;;;5032362;28;20625;-72
2022/05/17 03:27:19;;;;;;;5.47;3.10;;;16.90;99.90;;;;;;5031134;28;20624;-72
2022/05/17 03:29:45;;;;;;;5.00;3.03;;;16.90;99.90;;;;;;5032553;28;20567;-72
2022/05/17 03:32:11;;;;;;;6.00;3.10;;;16.90;99.90;;;;;;5032755;28;20561;-72
2022/05/17 03:34:37;;;;;;;6.67;3.70;;;16.90;99.90;;;;;;5032792;28;20983;-72
2022/05/17 03:37:03;;;;;;;5.37;3.53;;;16.90;99.90;;;;;;5032127;28;20580;-72
2022/05/17 03:39:29;;;;;;;3.77;3.30;;;16.90;99.90;;;;;;5031030;28;21150;-72
2022/05/17 03:41:55;;;;;;;4.03;3.20;;;16.90;99.90;;;;;;5031912;28;20568;-72
2022/05/17 03:44:21;;;;;;;4.77;4.20;;;16.90;99.90;;;;;;5032405;28;20209;-72
2022/05/17 03:46:46;;;;;;;6.93;3.80;;;16.90;99.90;;;;;;5031778;28;20597;-72
2022/05/17 03:49:12;;;;;;;5.80;3.80;;;16.90;99.90;;;;;;5032369;28;20687;-72
2022/05/17 03:51:38;;;;;;;6.43;4.27;;;16.90;99.90;;;;;;5032067;28;20201;-72
2022/05/17 03:54:04;;;;;;;4.00;3.60;;;16.90;99.90;;;;;;5032216;28;20626;-72
2022/05/17 03:56:30;;;;;;;5.00;4.40;;;16.90;99.90;;;;;;5031532;28;20677;-72
2022/05/17 03:58:56;;;;;;;7.97;3.87;;;16.90;99.90;;;;;;5032225;28;21100;-72
2022/05/17 04:01:21;;;;;;;5.03;4.53;;;16.90;99.90;;;;;;5031875;28;20227;-72
2022/05/17 04:03:48;;;;;;;5.57;3.37;;;16.90;99.90;;;;;;5032138;28;20170;-72
2022/05/17 04:06:13;;;;;;;3.97;3.67;;;17.00;99.90;;;;;;5030089;28;21178;-72
2022/05/17 04:08:40;;;;;;;6.13;4.03;;;16.90;99.90;;;;;;5031769;28;20288;-72
2022/05/17 04:11:07;;;;;;;4.90;3.93;;;17.00;99.90;;;;;;5031747;28;20170;-72
2022/05/17 04:13:34;;;;;;;5.63;4.77;;;17.10;99.90;;;;;;5032012;28;20601;-72
2022/05/17 04:16:01;;;;;;;4.43;4.03;;;17.10;99.90;;;;;;5031409;28;21002;-72
2022/05/17 04:18:28;;;;;;;5.90;3.80;;;17.10;99.90;;;;;;5032054;28;20577;-72
2022/05/17 04:21:01;;;;;;;5.23;4.07;;;17.10;99.90;;;;;;5031521;28;20564;-72
2022/05/17 04:23:27;;;;;;;7.10;4.70;;;17.20;99.90;;;;;;5031483;28;20560;-72
2022/05/17 04:25:53;;;;;;;4.70;3.60;;;17.30;99.90;;;;;;5030420;28;20601;-72
2022/05/17 04:28:19;;;;;;;4.47;3.43;;;17.30;99.90;;;;;;5031780;28;20619;-72
2022/05/17 04:30:45;;;;;;;6.03;4.20;;;17.40;99.90;;;;;;5031419;28;20172;-72
2022/05/17 04:33:12;;;;;;;6.07;4.97;;;17.40;99.90;;;;;;5031527;28;20168;-71
2022/05/17 04:35:39;;;;;;;6.20;4.27;;;17.40;99.90;;;;;;5029795;28;20642;-72
2022/05/17 04:38:07;;;;;;;5.80;4.60;;;17.50;99.90;;;;;;5029984;28;20565;-72
2022/05/17 04:40:36;;;;;;;6.30;4.07;;;17.60;99.90;;;;;;5029602;28;20577;-72
2022/05/17 04:43:02;;;;;;;6.03;4.20;;;17.60;99.90;;;;;;5031208;28;20626;-71
2022/05/17 04:45:28;;;;;;;7.37;4.80;;;17.60;99.90;;;;;;5029437;28;21007;-71
2022/05/17 04:47:54;;;;;;;4.93;4.20;;;17.70;99.90;;;;;;5031276;28;20620;-72
2022/05/17 04:50:20;;;;;;;4.47;3.77;;;17.80;99.90;;;;;;5029492;28;20172;-71
2022/05/17 04:52:47;;;;;;;6.30;3.87;;;17.80;99.90;;;;;;5030963;28;20618;-72
2022/05/17 04:55:16;;;;;;;7.90;3.80;;;17.90;99.90;;;;;;5030981;28;20645;-71
2022/05/17 04:57:41;;;;;;;5.40;4.13;;;18.00;99.90;;;;;;5031025;28;20627;-72
2022/05/17 05:00:14;;;;;;;3.90;3.40;;;18.00;99.90;;;;;;5030714;28;21161;-71
2022/05/17 05:02:40;;;;;;;5.77;3.80;;;18.10;99.90;;;;;;5030971;28;20882;-72
2022/05/17 05:05:06;;;;;;;5.30;4.33;;;18.20;99.90;;;;;;5031033;28;20614;-71
2022/05/17 05:07:32;;;;;;;6.73;3.73;;;18.40;99.90;;;;;;5029954;28;20288;-72
2022/05/17 05:09:57;;;;;;;5.30;4.50;;;18.40;99.90;;;;;;5030642;28;20659;-72
2022/05/17 05:12:23;;;;;;;7.57;4.43;;;18.50;99.90;;;;;;5030777;28;20252;-71
2022/05/17 05:14:49;;;;;;;7.10;4.73;;;18.60;99.90;;;;;;5029606;28;20177;-71
2022/05/17 05:17:16;;;;;;;6.00;4.50;;;18.60;99.90;;;;;;5028792;28;20256;-71
2022/05/17 05:19:41;;;;;;;5.13;4.13;;;18.60;99.90;;;;;;5030238;28;20684;-72
2022/05/17 05:22:07;;;;;;;5.53;4.20;;;18.60;99.90;;;;;;5029261;28;20265;-71
2022/05/17 05:24:33;;;;;;;6.00;3.80;;;18.70;99.90;;;;;;5030867;28;20588;-72
2022/05/17 05:26:59;;;;;;;9.63;4.80;;;18.70;99.90;;;;;;5030107;28;20565;-72
2022/05/17 05:29:25;;;;;;;4.20;3.67;;;18.80;99.90;;;;;;5030796;28;20703;-71
2022/05/17 05:31:51;;;;;;;4.27;3.87;;;18.90;99.90;;;;;;5030518;28;20667;-72
2022/05/17 05:34:17;;;;;;;4.70;4.07;;;18.90;99.90;;;;;;5030737;28;20676;-72
2022/05/17 05:36:44;;;;;;;4.50;3.70;;;19.00;99.90;;;;;;5029661;28;20189;-72
2022/05/17 05:39:10;;;;;;;4.60;3.40;;;19.00;99.90;;;;;;5034666;28;20568;-72
2022/05/17 05:41:35;;;;;;;4.97;4.20;;;19.10;99.90;;;;;;5033059;28;20569;-72
2022/05/17 05:44:03;;;;;;;7.43;4.90;;;19.20;99.90;;;;;;5034562;28;20264;-71
2022/05/17 05:46:29;;;;;;;4.97;4.27;;;19.30;99.90;;;;;;5032558;28;20675;-72
2022/05/17 05:48:55;;;;;;;3.70;3.30;;;19.40;99.90;;;;;;5034337;28;21026;-72
2022/05/17 05:51:20;;;;;;;5.73;4.67;;;19.50;99.90;;;;;;5034100;28;20869;-72
2022/05/17 05:53:46;;;;;;;7.27;5.40;;;19.60;99.90;;;;;;5035026;28;20641;-72
2022/05/17 05:57:08;;;;;;;5.53;4.20;;;19.70;99.90;;;;;;5043395;28;20600;-72
2022/05/17 06:00:15;;;;;;;6.07;4.17;;;19.80;99.90;;;;;;5002821;28;20317;-73
2022/05/17 06:03:21;;;;;;;4.87;4.13;;;20.00;99.90;;;;;;4976663;28;21404;-72
2022/05/17 06:05:48;;;;;;;4.60;4.03;;;20.20;99.90;;;;;;4957648;28;21312;-77
2022/05/17 06:08:21;;;;;;;5.40;4.40;;;20.40;99.90;;;;;;5017179;28;20629;-78
2022/05/17 06:10:47;;;;;;;5.97;4.73;;;20.60;99.90;;;;;;5017411;28;20635;-78
2022/05/17 06:13:16;;;;;;;6.03;4.70;;;20.80;99.90;;;;;;5019136;28;20569;-77
2022/05/17 06:15:47;;;;;;;6.83;4.83;;;21.00;99.90;;;;;;5032326;28;20611;-78
2022/05/17 06:18:14;;;;;;;7.97;5.20;;;21.10;99.90;;;;;;5033470;28;20577;-78
2022/05/17 06:20:40;;;;;;;9.00;4.03;;;21.30;99.90;;;;;;5034100;28;20935;-77
2022/05/17 06:23:08;;;;;;;5.93;4.90;;;21.50;99.90;;;;;;5033490;28;20691;-77
2022/05/17 06:25:34;;;;;;;5.37;4.60;;;21.80;99.90;;;;;;5032692;28;20675;-77
2022/05/17 06:28:00;;;;;;;5.13;4.63;;;22.30;99.90;;;;;;5033842;28;20667;-74
2022/05/17 06:30:27;;;;;;;9.10;4.73;;;22.80;99.90;;;;;;5032360;28;20587;-74
2022/05/17 06:32:52;;;;;;;4.40;3.73;;;23.30;99.90;;;;;;5030141;28;20594;-74
2022/05/17 06:35:18;;;;;;;7.80;5.27;;;23.70;99.90;;;;;;5031971;28;20612;-74
2022/05/17 06:37:45;;;;;;;5.37;4.80;;;23.90;99.90;;;;;;5026474;28;20593;-72
2022/05/17 06:40:12;;;;;;;11.43;4.47;;;23.90;99.90;;;;;;5012892;28;20257;-73
2022/05/17 06:42:37;;;;;;;6.03;4.10;;;24.00;99.90;;;;;;5027594;28;20616;-72
2022/05/17 06:45:06;;;;;;;7.43;4.80;;;24.20;99.90;;;;;;5029077;28;20643;-72
2022/05/17 06:47:32;;;;;;;5.33;4.73;;;24.30;99.90;;;;;;5032097;28;20624;-73
2022/05/17 06:49:58;;;;;;;4.40;3.63;;;24.50;99.90;;;;;;5043933;28;20576;-74
2022/05/17 06:52:26;;;;;;;4.77;3.70;;;24.40;99.90;;;;;;5031691;28;20944;-74
2022/05/17 06:54:52;;;;;;;5.40;4.67;;;24.30;99.90;;;;;;5032222;28;20170;-74
2022/05/17 06:57:18;;;;;;;6.27;3.97;;;24.20;99.90;;;;;;5031098;28;20588;-74
2022/05/17 06:59:45;;;;;;;8.07;5.00;;;24.10;99.90;;;;;;5032320;28;20236;-75
2022/05/17 07:02:11;;;;;;;4.90;4.40;;;23.90;99.90;;;;;;5032107;28;20583;-72
2022/05/17 07:04:38;;;;;;;7.30;4.17;;;23.70;99.90;;;;;;5032166;28;20573;-72
2022/05/17 07:07:05;;;;;;;6.23;4.40;;;23.50;99.90;;;;;;5031788;28;20710;-74
2022/05/17 07:09:31;;;;;;;4.80;4.10;;;23.40;99.90;;;;;;5029120;28;20665;-73
2022/05/17 07:14:41;;;;;;;6.53;4.63;;;23.40;99.90;;;;;;5030278;28;20950;-73
2022/05/17 07:17:12;;;;;;;6.00;3.90;;;23.60;99.90;;;;;;5028871;28;20620;-72
2022/05/17 07:19:38;;;;;;;5.77;4.50;;;23.70;99.90;;;;;;5031832;28;20193;-72
2022/05/17 07:22:05;;;;;;;5.13;4.43;;;23.70;99.90;;;;;;5030915;28;20650;-73
2022/05/17 07:24:32;;;;;;;4.20;3.27;;;23.80;99.90;;;;;;5030296;28;20572;-73
2022/05/17 07:26:59;;;;;;;4.83;3.37;;;24.10;99.90;;;;;;5031163;28;20620;-72
2022/05/17 07:29:26;;;;;;;5.63;3.20;;;24.30;99.90;;;;;;5031541;28;20580;-72
2022/05/17 07:31:52;;;;;;;5.40;3.47;;;24.40;99.90;;;;;;5031114;28;20576;-73
2022/05/17 07:34:17;;;;;;;4.00;3.00;;;24.40;99.90;;;;;;5031981;28;20564;-74
2022/05/17 07:36:44;;;;;;;4.90;3.00;;;24.50;99.90;;;;;;5029641;28;20699;-74
2022/05/17 07:39:10;;;;;;;10.60;3.90;;;24.40;99.90;;;;;;5031671;28;20162;-74
2022/05/17 07:41:36;;;;;;;4.53;2.97;;;24.30;99.90;;;;;;5031373;28;20611;-72
2022/05/17 07:44:03;;;;;;;2.70;2.13;;;24.20;99.90;;;;;;5031829;28;20576;-72
2022/05/17 07:46:29;;;;;;;4.90;2.17;;;24.00;99.90;;;;;;5030739;28;20609;-72
2022/05/17 07:48:55;;;;;;;4.77;3.07;;;24.10;99.90;;;;;;5030250;28;21028;-73
2022/05/17 07:51:21;;;;;;;3.60;2.70;;;24.10;99.90;;;;;;5029908;28;20568;-72
2022/05/17 07:53:47;;;;;;;6.43;2.33;;;24.10;99.90;;;;;;5031691;28;20266;-73
2022/05/17 07:56:14;;;;;;;5.73;2.70;;;24.20;99.90;;;;;;5029433;28;20643;-73
2022/05/17 07:58:41;;;;;;;5.37;2.73;;;24.40;99.90;;;;;;5031395;28;20581;-72
2022/05/17 08:01:06;;;;;;;5.33;2.27;;;24.70;99.90;;;;;;5028748;28;21127;-72
2022/05/17 08:03:32;;;;;;;3.90;1.93;;;25.10;99.90;;;;;;5031267;28;20569;-72
2022/05/17 08:05:58;;;;;;;4.10;2.10;;;25.50;99.90;;;;;;5030601;28;20359;-73
2022/05/17 08:08:24;;;;;;;2.57;1.80;;;26.00;99.90;;;;;;5028008;28;20202;-74
2022/05/17 08:10:50;;;;;;;2.60;1.80;;;26.30;99.90;;;;;;5030667;28;20219;-74
2022/05/17 08:13:18;;;;;;;4.90;2.20;;;26.50;99.90;;;;;;5029805;28;20236;-74
2022/05/17 08:15:44;;;;;;;4.47;2.30;;;26.70;99.90;;;;;;5030272;28;21162;-74
2022/05/17 08:18:11;;;;;;;12.13;2.40;;;27.00;99.90;;;;;;5030137;28;21084;-73
2022/05/17 08:20:37;;;;;;;3.90;1.60;;;27.00;99.90;;;;;;5029594;28;20942;-73
2022/05/17 08:23:05;;;;;;;5.13;2.30;;;27.00;99.90;;;;;;5024567;28;20658;-74
2022/05/17 08:28:16;;;;;;;4.33;2.30;;;27.10;99.90;;;;;;5027263;28;20986;-72
2022/05/17 08:30:43;;;;;;;3.90;2.03;;;27.10;99.90;;;;;;5029326;28;20592;-73
2022/05/17 08:33:19;;;;;;;5.00;2.37;;;27.20;99.90;;;;;;5022616;28;20581;-72
2022/05/17 08:36:25;;;;;;;5.23;2.13;;;27.50;99.90;;;;;;5029886;28;21030;-73
2022/05/17 08:38:50;;;;;;;4.17;1.97;;;27.90;99.90;;;;;;4938251;29;20630;-73
2022/05/17 08:41:19;;;;;;;4.60;2.10;;;28.40;99.90;;;;;;4933168;29;20605;-73
2022/05/17 08:47:36;;;;;;;6.43;3.10;;;29.60;99.90;;;;;;4864962;29;21269;-73
2022/05/17 08:50:07;;;;;;;7.23;2.30;;;30.70;98.40;;;;;;4962763;28;20644;-74
2022/05/17 08:52:37;;;;;;;4.93;2.90;;;31.40;98.80;;;;;;5029190;28;20610;-73
2022/05/17 08:55:10;;;;;;;4.40;2.03;;;31.70;96.00;;;;;;5029200;28;20587;-74
2022/05/17 08:57:45;;;;;;;4.20;2.37;;;31.90;94.60;;;;;;5026254;28;20605;-74
2022/05/17 09:00:29;;;;;;;3.60;2.30;;;32.10;94.10;;;;;;5030275;28;20589;-74
2022/05/17 09:03:03;;;;;;;4.10;2.07;;;32.00;92.70;;;;;;5029461;28;20623;-74
2022/05/17 09:05:29;;;;;;;5.80;2.80;;;31.80;91.50;;;;;;5024933;28;20623;-75
2022/05/17 09:08:32;;;;;;;3.57;2.33;;;31.70;90.70;;;;;;5028023;28;21219;-74
2022/05/17 09:11:23;;;;;;;4.20;2.00;;;31.40;90.00;;;;;;5025819;28;20178;-73
2022/05/17 09:14:15;;;;;;;4.23;2.93;;;31.30;84.40;;;;;;5030288;28;20573;-73
2022/05/17 09:17:04;;;;;;;4.27;2.30;;;31.30;89.00;;;;;;5029846;28;20631;-73
2022/05/17 09:19:29;;;;;;;3.60;1.60;;;31.30;86.20;;;;;;5032614;28;20578;-73
2022/05/17 09:21:59;;;;;;;3.37;1.43;;;31.20;87.00;;;;;;5035380;28;20944;-73
2022/05/17 09:24:30;;;;;;;5.27;1.50;;;31.10;86.70;;;;;;5037034;28;20169;-73
2022/05/17 09:27:20;;;;;;;2.33;1.03;;;31.20;84.70;;;;;;5035876;28;20616;-73
2022/05/17 09:29:47;;;;;;;2.80;1.20;;;31.00;82.00;;;;;;5036777;28;20619;-73
2022/05/17 09:32:25;;;;;;;2.63;1.30;;;31.00;82.70;;;;;;5052624;28;20579;-73
2022/05/17 09:35:03;;;;;;;3.10;1.40;;;30.90;81.10;;;;;;5055413;28;20912;-72
2022/05/17 09:37:36;;;;;;;2.90;1.00;;;30.90;79.60;;;;;;5039371;28;21033;-73
2022/05/17 09:40:08;;;;;;;3.40;1.30;;;30.80;79.20;;;;;;5036397;28;20968;-73
2022/05/17 09:42:53;;;;;;;3.50;1.00;;;30.80;79.00;;;;;;5035291;28;20602;-73
2022/05/17 09:45:20;;;;;;;3.10;1.40;;;30.60;78.90;;;;;;5036210;28;20614;-73
2022/05/17 09:48:00;;;;;;;4.50;1.20;;;30.50;78.30;;;;;;5036601;28;20971;-73
2022/05/17 09:53:18;;;;;;;3.60;1.80;;;30.50;80.30;;;;;;5035817;28;20575;-72
2022/05/17 09:55:56;;;;;;;2.60;1.63;;;30.60;80.50;;;;;;5036342;28;20599;-72
2022/05/17 09:58:32;;;;;;;3.30;1.70;;;30.70;79.90;;;;;;5035659;28;20590;-73
2022/05/17 10:01:00;;;;;;;2.50;0.90;;;30.80;78.10;;;;;;5035866;28;20595;-73
2022/05/17 10:03:36;;;;;;;2.23;0.87;;;30.70;77.30;;;;;;5036605;28;21195;-73
2022/05/17 10:06:08;;;;;;;1.80;0.90;;;30.50;76.20;;;;;;5036220;28;21155;-73
2022/05/17 10:08:59;;;;;;;3.43;1.00;;;30.60;77.50;;;;;;5035451;28;20963;-72
2022/05/17 10:11:26;;;;;;;2.23;0.97;;;30.60;76.30;;;;;;5034119;28;20607;-72
2022/05/17 10:14:05;;;;;;;3.50;1.00;;;30.60;76.70;;;;;;5032419;28;20585;-73
2022/05/17 10:16:47;;;;;;;3.67;0.90;;;30.70;74.30;;;;;;5028319;28;21495;-72
2022/05/17 10:19:13;;;;;;;2.67;1.00;;;30.50;73.40;;;;;;5036679;28;20607;-73
2022/05/17 10:21:46;;;;;;;1.93;0.70;;;30.40;73.30;;;;;;5033879;28;20584;-73
2022/05/17 10:24:39;;;;;;;4.90;1.57;;;30.40;73.20;;;;;;5033058;28;20594;-72
2022/05/17 10:27:09;;;;;;;4.57;1.50;;;30.30;72.30;;;;;;5031699;28;20608;-72
2022/05/17 10:29:44;;;;;;;2.47;0.97;;;30.30;73.00;;;;;;5032171;28;20711;-72
2022/05/17 10:32:24;;;;;;;2.00;0.80;;;30.20;72.10;;;;;;5032416;28;21221;-72
2022/05/17 10:34:58;;;;;;;1.97;1.00;;;29.90;71.80;;;;;;5033596;28;20556;-72
2022/05/17 10:37:52;;;;;;;4.93;1.83;;;29.80;72.60;;;;;;5032875;28;20583;-72
2022/05/17 10:40:30;;;;;;;2.30;0.90;;;29.70;73.40;;;;;;5030584;28;20685;-73
2022/05/17 10:42:57;;;;;;;2.53;1.07;;;29.60;72.30;;;;;;5033314;28;21134;-72
2022/05/17 10:45:36;;;;;;;3.87;1.50;;;29.50;73.60;;;;;;5031967;28;21095;-72
2022/05/17 10:48:29;;;;;;;3.87;1.03;;;29.40;73.50;;;;;;5032621;28;20625;-72
2022/05/17 10:51:06;;;;;;;4.87;1.27;;;29.30;72.80;;;;;;5031653;28;20575;-73
2022/05/17 10:54:03;;;;;;;3.33;1.13;;;29.20;71.50;;;;;;5032896;28;20576;-72
2022/05/17 10:56:46;;;;;;;2.00;1.07;;;29.00;72.50;;;;;;5032679;28;20584;-72
2022/05/17 10:59:26;;;;;;;4.80;0.90;;;29.10;73.80;;;;;;5032951;28;20571;-73
2022/05/17 11:02:08;;;;;;;2.90;1.00;;;29.30;74.10;;;;;;5031371;28;20624;-73
2022/05/17 11:04:57;;;;;;;2.93;0.90;;;29.40;71.90;;;;;;5030780;28;20577;-73
2022/05/17 11:07:54;;;;;;;1.50;0.80;;;29.60;73.40;;;;;;5032214;28;20570;-74
2022/05/17 11:10:35;;;;;;;1.90;1.00;;;30.00;74.40;;;;;;5032327;28;20584;-73
2022/05/17 11:13:40;;;;;;;4.70;1.07;;;30.30;71.70;;;;;;5031798;28;20923;-73
2022/05/17 11:16:20;;;;;;;1.93;0.80;;;30.30;70.40;;;;;;5031144;28;20691;-73
2022/05/17 11:18:54;;;;;;;3.07;1.23;;;30.40;69.70;;;;;;5032366;28;20611;-74
2022/05/17 11:21:27;;;;;;;2.53;1.00;;;30.40;68.30;;;;;;5032275;28;20582;-74
2022/05/17 11:24:07;;;;;;;2.73;1.10;;;30.50;68.30;;;;;;5031066;28;20960;-73
2022/05/17 11:26:33;;;;;;;4.37;1.30;;;30.60;68.50;;;;;;5031322;28;20643;-74
2022/05/17 11:29:29;;;;;;;2.93;0.90;;;30.80;68.80;;;;;;5029745;28;21012;-73
2022/05/17 11:32:20;;;;;;;1.67;0.77;;;30.80;67.10;;;;;;5016201;28;20585;-73
2022/05/17 11:34:46;;;;;;;1.90;0.90;;;30.70;66.40;;;;;;5020469;28;20576;-73
2022/05/17 11:37:41;;;;;;;2.07;0.90;;;30.50;64.80;;;;;;5031562;28;20576;-73
2022/05/17 11:40:10;;;;;;;2.90;0.80;;;30.30;65.30;;;;;;5030725;28;20937;-73
2022/05/17 11:43:40;;;;;;;2.67;1.00;;;30.10;65.30;;;;;;5032051;28;20588;-72
2022/05/17 11:45:49;;;;;;;1.77;0.80;;;30.00;64.30;;;;;;5031515;28;20635;-72
2022/05/17 11:48:18;;;;;;;1.87;0.80;;;29.70;63.30;;;;;;5032363;28;21173;-73
2022/05/17 11:51:00;;;;;;;2.40;1.00;;;29.70;64.30;;;;;;5031571;28;20592;-73
2022/05/17 11:53:26;;;;;;;2.57;0.90;;;29.50;64.30;;;;;;5031279;28;20577;-73
2022/05/17 11:56:16;;;;;;;1.73;0.60;;;29.40;65.60;;;;;;5051407;28;20648;-73
2022/05/17 11:58:44;;;;;;;2.73;0.80;;;29.50;66.40;;;;;;5052084;28;20205;-73
2022/05/17 12:01:39;;;;;;;3.90;0.80;;;29.70;65.10;;;;;;5051783;28;21126;-73
2022/05/17 12:04:20;;;;;;;1.60;0.73;;;29.80;66.50;;;;;;5038258;28;20623;-73
2022/05/17 12:06:52;;;;;;;1.60;0.70;;;30.10;64.10;;;;;;5034879;28;20604;-74
2022/05/17 12:09:20;;;;;;;1.70;0.70;;;30.20;64.30;;;;;;5025191;28;20629;-74
2022/05/17 12:12:22;;;;;;;2.70;0.60;;;30.30;63.40;;;;;;5029898;28;20910;-74
2022/05/17 12:15:26;;;;;;;1.87;0.50;;;30.20;61.40;;;;;;5011964;28;20620;-73
2022/05/17 12:18:04;;;;;;;1.60;0.70;;;30.10;59.20;;;;;;5013780;28;20663;-73
2022/05/17 12:20:54;;;;;;;6.43;0.70;;;30.00;60.90;;;;;;5031274;28;20561;-73
2022/05/17 12:23:34;;;;;;;2.07;0.60;;;30.00;60.60;;;;;;5030386;28;20660;-73
2022/05/17 12:26:14;;;;;;;1.97;0.80;;;29.70;59.40;;;;;;5030816;28;21224;-73
2022/05/17 12:28:49;;;;;;;1.53;0.60;;;29.70;60.70;;;;;;5030836;28;20628;-74
2022/05/17 12:31:26;;;;;;;1.70;0.90;;;29.60;60.80;;;;;;5029656;28;20646;-74
2022/05/17 12:33:52;;;;;;;2.00;0.90;;;29.50;59.60;;;;;;5031189;28;20579;-75
2022/05/17 12:36:25;;;;;;;2.47;0.80;;;29.50;60.30;;;;;;5028722;28;21041;-74
2022/05/17 12:44:55;;;;;;;1.83;0.60;;;29.20;60.20;;;;;;5031214;28;20662;-74
2022/05/17 12:47:46;;;;;;;1.67;0.70;;;29.10;60.20;;;;;;5030052;28;20608;-74
2022/05/17 12:54:26;;;;;;;1.60;0.67;;;29.10;60.50;;;;;;4999060;28;20568;-73
2022/05/17 12:56:52;;;;;;;1.40;0.60;;;29.10;60.90;;;;;;5029950;28;21002;-72
2022/05/17 12:59:46;;;;;;;2.17;0.87;;;29.10;61.10;;;;;;5029682;28;20650;-72
2022/05/17 13:02:21;;;;;;;2.27;0.80;;;29.10;61.60;;;;;;5028502;28;20285;-72
2022/05/17 13:04:46;;;;;;;3.17;0.90;;;29.20;61.40;;;;;;5029798;28;20559;-72
2022/05/17 13:07:17;;;;;;;1.70;0.70;;;29.40;60.70;;;;;;5029303;28;20572;-72
2022/05/17 13:10:02;;;;;;;1.67;0.60;;;29.40;61.40;;;;;;5030567;28;20560;-72
2022/05/17 13:12:31;;;;;;;2.77;0.87;;;29.60;60.80;;;;;;5030882;28;20622;-72
2022/05/17 13:14:57;;;;;;;1.30;0.70;;;29.70;60.80;;;;;;5029804;28;21092;-73
2022/05/17 13:17:28;;;;;;;2.40;1.47;;;29.80;61.00;;;;;;5030127;28;20556;-71
2022/05/17 13:20:00;;;;;;;2.73;1.93;;;29.90;60.80;;;;;;5024641;28;20595;-71
2022/05/17 13:22:27;;;;;;;2.10;0.90;;;30.00;60.40;;;;;;5030305;28;21317;-71
2022/05/17 13:25:16;;;;;;;1.73;0.90;;;30.00;60.20;;;;;;5030667;28;20569;-72
2022/05/17 13:27:52;;;;;;;1.77;0.70;;;30.10;60.50;;;;;;5029492;28;20615;-71
2022/05/17 13:30:30;;;;;;;1.97;0.90;;;30.20;59.70;;;;;;5031010;28;20599;-71